KCKM/CKM METAR and TAF weather

Enter ICAO airport designator
Station Type Date Time Source
KCKM METAR 2019/10/20 19:35 UTC NOAA

KCKM 201935Z AUTO 14007KT 10SM 27/19 A2981 RMK A01


Station Type Date Time Source
KCKM Decoded METAR 2019/10/20 19:35 UTC NOAA

Station name not available
Oct 20, 2019 - 03:35 PM EDT / 2019.10.20 1935 UTC
Wind: from the SE (140 degrees) at 8 MPH (7 KT):0
Visibility: 10 mile(s):0
Temperature: 80 F (27 C)
Dew Point: 66 F (19 C)
Relative Humidity: 61%
Pressure (altimeter): 29.81 in. Hg (1009 hPa)
ob: KCKM 201935Z AUTO 14007KT 10SM 27/19 A2981 RMK A01
cycle: 19

Station Type Date Time Source
KCKM TAF UTC NOAA

Error!

Example: see airport list